Time;durP1;ratioP1;P1;durP2;ratioP2;P2;SDS_P1;SDS_P2;PMS_P1;PMS_P2;Temp;Humidity;BMP_temperature;BMP_pressure;BME280_temperature;BME280_humidity;BME280_pressure;Samples;Min_cycle;Max_cycle;Signal;HPM_P1;HPM_P2
2022/04/17 00:02:02;;;;;;;7.65;6.40;;;8.70;52.80;;;;;;5051600;28;20048;-68
2022/04/17 00:04:28;;;;;;;9.55;6.65;;;8.70;52.80;;;;;;5053203;28;20041;-68
2022/04/17 00:06:54;;;;;;;8.07;6.68;;;8.70;52.70;;;;;;5053028;28;20033;-68
2022/04/17 00:09:20;;;;;;;8.45;6.03;;;8.70;53.50;;;;;;5050119;28;20045;-68
2022/04/17 00:11:46;;;;;;;9.15;6.63;;;8.70;52.90;;;;;;5056726;28;20044;-68
2022/04/17 00:14:11;;;;;;;8.73;6.45;;;8.60;52.90;;;;;;5059584;28;20041;-68
2022/04/17 00:16:40;;;;;;;13.38;6.82;;;8.60;53.20;;;;;;5052871;28;20044;-68
2022/04/17 00:19:06;;;;;;;7.55;5.90;;;8.50;53.50;;;;;;5052808;28;20379;-68
2022/04/17 00:21:32;;;;;;;8.50;6.63;;;8.50;53.80;;;;;;5052401;28;20055;-68
2022/04/17 00:23:58;;;;;;;10.23;6.80;;;8.40;54.00;;;;;;5044873;28;20040;-68
2022/04/17 00:26:24;;;;;;;9.88;6.82;;;8.40;54.20;;;;;;5060722;28;20422;-68
2022/04/17 00:28:49;;;;;;;8.95;6.28;;;8.30;54.50;;;;;;5052343;28;20083;-68
2022/04/17 00:31:15;;;;;;;9.35;6.35;;;8.30;54.60;;;;;;5051083;28;20052;-67
2022/04/17 00:33:40;;;;;;;9.90;6.35;;;8.30;54.90;;;;;;5052432;28;20120;-68
2022/04/17 00:36:06;;;;;;;9.00;6.38;;;8.30;55.00;;;;;;5052348;28;20032;-68
2022/04/17 00:38:31;;;;;;;10.27;6.18;;;8.20;55.00;;;;;;5052290;28;20153;-67
2022/04/17 00:40:57;;;;;;;9.70;5.97;;;8.30;55.20;;;;;;5052012;28;20033;-68
2022/04/17 00:43:30;;;;;;;11.07;6.18;;;8.20;55.40;;;;;;5050906;28;20150;-67
2022/04/17 00:45:56;;;;;;;9.13;6.43;;;8.20;55.50;;;;;;5034337;28;20036;-68
2022/04/17 00:48:23;;;;;;;9.50;6.82;;;8.20;55.60;;;;;;5052150;28;20082;-67
2022/04/17 00:50:55;;;;;;;8.55;6.35;;;8.10;55.90;;;;;;5051839;28;20041;-67
2022/04/17 00:53:22;;;;;;;10.05;6.38;;;8.20;56.30;;;;;;5046238;28;20041;-68
2022/04/17 00:55:49;;;;;;;13.88;6.57;;;8.10;56.50;;;;;;5060707;28;20695;-68
2022/04/17 00:58:15;;;;;;;8.25;5.72;;;8.00;56.60;;;;;;5066329;28;20119;-68
2022/04/17 01:00:41;;;;;;;7.70;6.30;;;8.00;56.90;;;;;;5063424;28;20117;-68
2022/04/17 01:03:07;;;;;;;8.02;6.18;;;8.00;56.80;;;;;;5070870;28;20040;-68
2022/04/17 01:05:33;;;;;;;10.05;6.32;;;7.90;57.10;;;;;;5070611;28;20115;-68
2022/04/17 01:07:59;;;;;;;10.80;6.28;;;7.90;57.10;;;;;;5071864;28;20153;-68
2022/04/17 01:10:24;;;;;;;8.32;6.05;;;7.90;57.20;;;;;;5071382;28;20055;-68
2022/04/17 01:12:53;;;;;;;8.90;6.47;;;7.90;57.40;;;;;;5071855;28;20051;-68
2022/04/17 01:15:19;;;;;;;8.80;6.15;;;7.90;57.60;;;;;;5071721;28;20490;-68
2022/04/17 01:17:45;;;;;;;9.90;6.60;;;7.90;57.60;;;;;;5071925;28;20391;-67
2022/04/17 01:20:12;;;;;;;9.38;6.75;;;7.90;57.70;;;;;;5071503;28;20086;-68
2022/04/17 01:22:37;;;;;;;9.15;6.47;;;7.90;57.70;;;;;;5071594;28;20090;-68
2022/04/17 01:27:48;;;;;;;9.80;6.80;;;7.80;58.40;;;;;;5071896;28;20116;-68
2022/04/17 01:30:13;;;;;;;10.43;6.18;;;7.80;58.20;;;;;;5070032;28;20041;-67
2022/04/17 01:32:39;;;;;;;9.90;6.50;;;7.80;58.20;;;;;;5071634;28;20055;-68
2022/04/17 01:35:05;;;;;;;11.10;7.13;;;7.70;58.20;;;;;;5071675;28;20543;-68
2022/04/17 01:37:30;;;;;;;8.98;6.88;;;7.70;58.40;;;;;;5053825;28;20080;-68
2022/04/17 01:39:56;;;;;;;11.73;7.18;;;7.70;58.60;;;;;;5071478;28;20079;-68
2022/04/17 01:42:21;;;;;;;8.95;6.68;;;7.60;58.60;;;;;;5071701;28;20128;-68
2022/04/17 01:44:49;;;;;;;10.45;6.90;;;7.60;58.70;;;;;;5071580;28;20032;-68
2022/04/17 01:47:14;;;;;;;8.57;6.72;;;7.60;58.80;;;;;;5071571;28;20082;-68
2022/04/17 01:49:40;;;;;;;10.95;7.00;;;7.60;59.10;;;;;;5071433;28;20037;-67
2022/04/17 01:52:07;;;;;;;12.02;7.38;;;7.60;59.10;;;;;;5069699;28;20047;-68
2022/04/17 01:54:33;;;;;;;9.13;7.13;;;7.60;59.40;;;;;;5071315;28;20410;-68
2022/04/17 01:56:58;;;;;;;11.90;7.65;;;7.60;59.90;;;;;;5071560;28;20044;-68
2022/04/17 01:59:24;;;;;;;10.82;7.05;;;7.50;59.80;;;;;;5071329;28;20044;-68
2022/04/17 02:01:51;;;;;;;11.32;7.85;;;7.50;60.00;;;;;;5071191;28;20041;-68
2022/04/17 02:04:17;;;;;;;10.77;7.05;;;7.40;60.40;;;;;;5071280;28;20048;-68
2022/04/17 02:06:42;;;;;;;9.25;6.85;;;7.40;60.40;;;;;;5071175;28;20498;-68
2022/04/17 02:09:14;;;;;;;10.93;7.80;;;7.40;60.60;;;;;;5071502;28;20044;-68
2022/04/17 02:11:41;;;;;;;10.05;6.82;;;7.30;60.90;;;;;;5071059;28;20098;-68
2022/04/17 02:14:08;;;;;;;10.95;7.40;;;7.30;60.90;;;;;;5071028;28;20565;-68
2022/04/17 02:16:34;;;;;;;12.63;7.43;;;7.30;61.00;;;;;;5071337;28;20436;-68
2022/04/17 02:19:00;;;;;;;10.23;7.43;;;7.30;61.10;;;;;;5071229;28;20044;-68
2022/04/17 02:21:26;;;;;;;11.40;7.05;;;7.30;61.30;;;;;;5070874;28;20474;-68
2022/04/17 02:23:52;;;;;;;12.48;7.22;;;7.30;61.40;;;;;;5071296;28;20075;-68
2022/04/17 02:26:18;;;;;;;10.48;8.07;;;7.20;61.40;;;;;;5071349;28;20063;-68
2022/04/17 02:28:45;;;;;;;11.23;8.02;;;7.20;61.40;;;;;;5053165;28;20044;-67
2022/04/17 02:31:11;;;;;;;10.52;7.32;;;7.20;61.60;;;;;;5070702;28;20569;-68
2022/04/17 02:33:38;;;;;;;10.60;7.22;;;7.20;61.70;;;;;;5070978;28;20036;-68
2022/04/17 02:36:04;;;;;;;11.55;7.50;;;7.20;62.10;;;;;;5071122;28;20071;-68
2022/04/17 02:38:30;;;;;;;12.88;8.10;;;7.20;62.20;;;;;;5074776;28;20075;-68
2022/04/17 02:40:56;;;;;;;10.65;7.88;;;7.20;62.40;;;;;;5074369;28;20068;-68
2022/04/17 02:43:22;;;;;;;12.48;8.02;;;7.10;62.50;;;;;;5074570;28;20037;-68
2022/04/17 02:45:49;;;;;;;12.85;8.27;;;7.10;62.80;;;;;;5074511;28;20096;-68
2022/04/17 02:48:15;;;;;;;10.98;8.10;;;7.10;63.10;;;;;;5073092;28;20097;-67
2022/04/17 02:50:40;;;;;;;10.45;7.32;;;7.10;63.20;;;;;;5074253;28;20041;-68
2022/04/17 02:53:07;;;;;;;12.27;8.15;;;7.00;63.60;;;;;;5074479;28;20115;-68
2022/04/17 02:55:33;;;;;;;10.20;8.23;;;7.00;63.70;;;;;;5074451;28;20048;-67
2022/04/17 02:57:59;;;;;;;9.95;8.07;;;7.10;64.20;;;;;;5074298;28;20112;-67
2022/04/17 03:00:26;;;;;;;12.38;7.90;;;7.00;64.50;;;;;;5074004;28;20112;-68
2022/04/17 03:05:37;;;;;;;10.32;8.10;;;6.90;65.20;;;;;;5074277;28;20040;-67
2022/04/17 03:08:05;;;;;;;10.32;7.90;;;6.90;65.40;;;;;;5072711;28;20051;-67
2022/04/17 03:10:31;;;;;;;10.25;8.13;;;6.80;65.90;;;;;;5073753;28;20047;-68
2022/04/17 03:12:57;;;;;;;11.95;8.55;;;6.70;66.50;;;;;;5073720;28;20566;-67
2022/04/17 03:15:23;;;;;;;11.93;8.93;;;6.70;66.80;;;;;;5074383;28;20115;-67
2022/04/17 03:17:49;;;;;;;10.77;8.32;;;6.70;67.20;;;;;;5073803;28;20028;-68
2022/04/17 03:20:14;;;;;;;10.95;7.78;;;6.70;68.00;;;;;;5073691;28;20086;-68
2022/04/17 03:22:41;;;;;;;15.00;9.10;;;6.70;68.80;;;;;;5073731;28;20082;-67
2022/04/17 03:25:08;;;;;;;14.32;9.77;;;6.60;69.20;;;;;;5072456;28;20048;-68
2022/04/17 03:27:33;;;;;;;12.05;9.40;;;6.60;70.00;;;;;;5073673;28;20064;-68
2022/04/17 03:29:59;;;;;;;14.82;8.85;;;6.60;70.90;;;;;;5073258;28;20457;-67
2022/04/17 03:32:25;;;;;;;12.73;8.88;;;6.60;70.70;;;;;;5073699;28;20048;-67
2022/04/17 03:34:50;;;;;;;11.98;8.90;;;6.50;71.40;;;;;;5073606;28;20081;-67
2022/04/17 03:37:16;;;;;;;13.35;9.68;;;6.40;71.90;;;;;;5073434;28;20513;-68
2022/04/17 03:39:42;;;;;;;13.88;9.18;;;6.40;72.60;;;;;;5073378;28;20482;-67
2022/04/17 03:42:08;;;;;;;12.98;8.90;;;6.50;73.40;;;;;;5073149;28;20119;-68
2022/04/17 03:44:34;;;;;;;13.55;9.18;;;6.40;74.00;;;;;;5073245;28;20171;-67
2022/04/17 03:47:00;;;;;;;11.70;8.68;;;6.40;73.60;;;;;;5073170;28;20155;-67
2022/04/17 03:49:26;;;;;;;12.93;8.80;;;6.40;73.80;;;;;;5071920;28;20118;-68
2022/04/17 03:51:52;;;;;;;14.95;9.52;;;6.40;74.30;;;;;;5071532;28;20553;-67
2022/04/17 03:54:18;;;;;;;15.55;9.73;;;6.40;74.70;;;;;;5071844;28;20067;-67
2022/04/17 03:56:46;;;;;;;12.30;9.63;;;6.30;75.40;;;;;;5073114;28;20047;-68
2022/04/17 03:59:12;;;;;;;14.13;9.35;;;6.30;75.00;;;;;;5071707;28;20040;-68
2022/04/17 04:01:37;;;;;;;13.57;10.13;;;6.30;75.40;;;;;;5072934;28;20098;-67
2022/04/17 04:04:04;;;;;;;14.05;9.32;;;6.30;75.10;;;;;;5073004;28;20040;-68
2022/04/17 04:06:29;;;;;;;17.92;9.90;;;6.30;75.30;;;;;;5073005;28;20052;-68
2022/04/17 04:08:55;;;;;;;13.07;9.52;;;6.30;75.50;;;;;;5072936;28;20036;-67
2022/04/17 04:11:20;;;;;;;12.27;9.43;;;6.20;75.90;;;;;;5072475;28;20437;-68
2022/04/17 04:13:46;;;;;;;18.13;10.18;;;6.10;76.40;;;;;;5072505;28;20036;-67
2022/04/17 04:16:11;;;;;;;14.40;10.30;;;6.10;77.20;;;;;;5072904;28;20106;-67
2022/04/17 04:18:37;;;;;;;13.38;10.63;;;6.10;77.80;;;;;;5072767;28;20041;-68
2022/04/17 04:21:03;;;;;;;16.67;10.32;;;6.00;78.70;;;;;;5072561;28;20505;-68
2022/04/17 04:23:33;;;;;;;15.48;9.88;;;6.00;78.90;;;;;;5072685;28;20067;-68
2022/04/17 04:25:59;;;;;;;13.98;9.93;;;6.10;79.20;;;;;;5071328;28;20115;-68
2022/04/17 04:28:34;;;;;;;14.57;10.75;;;5.90;80.00;;;;;;5072371;28;20472;-67
2022/04/17 04:31:05;;;;;;;14.80;10.75;;;5.90;80.70;;;;;;5072056;28;20473;-68
2022/04/17 04:33:31;;;;;;;17.00;11.55;;;5.80;81.30;;;;;;5072369;28;20036;-68
2022/04/17 04:36:00;;;;;;;17.75;11.45;;;5.80;81.30;;;;;;5072387;28;20098;-67
2022/04/17 04:38:27;;;;;;;14.77;11.23;;;5.80;82.20;;;;;;5072225;28;20490;-67
2022/04/17 04:40:54;;;;;;;15.23;11.18;;;5.80;82.70;;;;;;5071854;28;20052;-67
2022/04/17 04:43:20;;;;;;;14.77;11.25;;;5.80;82.60;;;;;;5072429;28;20447;-68
2022/04/17 04:51:14;;;;;;;19.42;13.65;;;5.80;82.30;;;;;;5070504;28;20045;-68
2022/04/17 04:53:40;;;;;;;20.35;13.40;;;5.80;82.50;;;;;;5070992;28;20041;-68
2022/04/17 04:56:07;;;;;;;22.67;14.73;;;5.90;82.40;;;;;;5072205;28;20072;-67
2022/04/17 04:58:32;;;;;;;22.95;15.73;;;5.90;82.00;;;;;;5071784;28;20555;-67
2022/04/17 05:00:58;;;;;;;19.52;14.50;;;5.90;81.80;;;;;;5071292;28;20044;-67
2022/04/17 05:03:24;;;;;;;20.58;15.18;;;6.00;81.70;;;;;;5071941;28;20036;-67
2022/04/17 05:05:49;;;;;;;22.58;14.95;;;6.00;81.40;;;;;;5071846;28;20120;-67
2022/04/17 05:08:15;;;;;;;23.30;15.05;;;6.10;81.00;;;;;;5072111;28;20040;-67
2022/04/17 05:10:40;;;;;;;20.90;14.55;;;6.30;80.10;;;;;;5070198;28;20045;-68
2022/04/17 05:13:06;;;;;;;22.50;15.88;;;6.40;79.40;;;;;;5071851;28;20070;-68
2022/04/17 05:15:31;;;;;;;19.48;14.35;;;6.50;78.20;;;;;;5071863;28;20048;-67
2022/04/17 05:17:57;;;;;;;23.27;15.60;;;6.70;77.30;;;;;;5071812;28;20523;-67
2022/04/17 05:20:23;;;;;;;23.88;16.20;;;6.80;76.10;;;;;;5071498;28;20123;-68
2022/04/17 05:22:56;;;;;;;21.63;15.20;;;7.00;74.90;;;;;;5071618;28;20067;-68
2022/04/17 05:25:22;;;;;;;19.67;14.43;;;7.10;73.90;;;;;;5071940;28;20074;-68
2022/04/17 05:27:47;;;;;;;25.15;14.98;;;7.30;73.50;;;;;;5071801;28;20086;-68
2022/04/17 05:30:13;;;;;;;21.65;14.98;;;7.50;72.80;;;;;;5070081;28;20041;-68
2022/04/17 05:32:38;;;;;;;24.70;15.27;;;7.50;71.70;;;;;;5070242;28;20045;-68
2022/04/17 05:35:05;;;;;;;19.40;14.98;;;7.60;71.10;;;;;;5070562;28;20482;-68
2022/04/17 05:37:30;;;;;;;23.52;14.52;;;7.70;70.40;;;;;;5071677;28;20111;-68
2022/04/17 05:39:56;;;;;;;17.63;13.70;;;7.80;70.10;;;;;;5071268;28;20043;-68
2022/04/17 05:42:21;;;;;;;22.45;14.65;;;7.90;69.70;;;;;;5071629;28;20044;-67
2022/04/17 05:44:48;;;;;;;22.10;15.13;;;8.10;69.40;;;;;;5071507;28;20119;-68
2022/04/17 05:47:14;;;;;;;22.17;15.60;;;8.10;69.10;;;;;;5053551;28;20490;-68
2022/04/17 05:49:39;;;;;;;19.88;13.80;;;8.30;68.30;;;;;;5071349;28;20086;-68
2022/04/17 05:52:05;;;;;;;24.48;15.93;;;8.40;68.10;;;;;;5071335;28;20048;-68
2022/04/17 05:54:31;;;;;;;23.83;14.90;;;8.50;67.90;;;;;;5071553;28;20119;-68
2022/04/17 05:56:57;;;;;;;20.90;15.02;;;8.60;67.60;;;;;;5071500;28;20128;-68
2022/04/17 05:59:22;;;;;;;17.27;14.00;;;8.70;67.00;;;;;;5071392;28;20041;-68
2022/04/17 06:01:48;;;;;;;23.85;14.88;;;8.80;66.50;;;;;;5071165;28;20051;-68
2022/04/17 06:04:14;;;;;;;23.83;14.45;;;8.90;66.70;;;;;;5071208;28;20044;-68
2022/04/17 06:06:39;;;;;;;22.83;14.90;;;9.10;66.20;;;;;;5071606;28;20055;-68
2022/04/17 06:09:05;;;;;;;23.55;13.63;;;9.50;65.80;;;;;;5071525;28;20517;-68
2022/04/17 06:11:30;;;;;;;20.65;15.10;;;9.40;64.80;;;;;;5073470;28;20102;-68
2022/04/17 06:13:56;;;;;;;19.27;14.50;;;9.60;64.60;;;;;;5074957;28;20028;-68
2022/04/17 06:16:22;;;;;;;22.05;13.48;;;9.60;64.10;;;;;;5074028;28;20120;-68
2022/04/17 06:18:47;;;;;;;20.67;14.02;;;9.80;63.80;;;;;;5076274;28;20123;-68
2022/04/17 06:21:13;;;;;;;20.80;14.50;;;9.70;63.20;;;;;;5074652;28;20044;-68
2022/04/17 06:23:39;;;;;;;18.67;14.07;;;9.90;63.10;;;;;;5075583;28;20111;-68
2022/04/17 06:26:06;;;;;;;21.33;14.13;;;9.90;62.80;;;;;;5075297;28;20037;-68
2022/04/17 06:28:32;;;;;;;21.60;15.27;;;10.10;62.40;;;;;;5074918;28;20047;-68
2022/04/17 06:30:57;;;;;;;19.60;13.63;;;10.20;62.50;;;;;;5056965;28;20494;-68
2022/04/17 06:33:23;;;;;;;20.40;12.93;;;10.40;61.90;;;;;;5073533;28;20123;-68
2022/04/17 06:35:49;;;;;;;19.35;13.43;;;10.50;61.60;;;;;;5075246;28;20033;-68
2022/04/17 06:38:15;;;;;;;19.25;13.52;;;10.50;61.10;;;;;;5057048;28;20090;-68
2022/04/17 06:40:42;;;;;;;19.23;14.90;;;10.60;60.60;;;;;;5074435;28;20497;-68
2022/04/17 06:43:08;;;;;;;21.88;14.90;;;10.60;60.60;;;;;;5074357;28;20036;-69
2022/04/17 06:45:36;;;;;;;18.17;13.30;;;10.80;60.80;;;;;;5073141;28;20049;-69
2022/04/17 06:48:15;;;;;;;24.17;14.07;;;11.00;60.00;;;;;;5074486;28;20047;-68
2022/04/17 06:50:41;;;;;;;19.25;12.38;;;11.00;59.80;;;;;;5072983;28;20127;-67
2022/04/17 06:53:07;;;;;;;19.73;14.10;;;11.10;60.00;;;;;;5074405;28;20037;-68
2022/04/17 06:55:32;;;;;;;21.33;12.82;;;11.30;60.10;;;;;;5073045;28;20047;-68
2022/04/17 06:57:58;;;;;;;18.75;13.52;;;11.60;59.80;;;;;;5074631;28;20029;-68
2022/04/17 07:00:24;;;;;;;23.00;13.48;;;11.70;59.60;;;;;;5073880;28;20047;-68
2022/04/17 07:02:49;;;;;;;18.33;13.60;;;11.90;58.80;;;;;;5051357;28;20032;-68
2022/04/17 07:05:15;;;;;;;17.30;13.73;;;12.10;58.60;;;;;;5049822;28;20394;-68
2022/04/17 07:07:41;;;;;;;17.20;12.48;;;12.30;58.10;;;;;;5049504;28;20041;-68
2022/04/17 07:10:08;;;;;;;17.13;11.90;;;12.50;57.50;;;;;;5042400;28;20053;-68
2022/04/17 07:12:34;;;;;;;14.95;11.20;;;12.60;57.00;;;;;;5043675;28;20371;-68
2022/04/17 07:15:01;;;;;;;18.58;11.98;;;12.80;56.00;;;;;;5044026;28;20103;-68
2022/04/17 07:17:41;;;;;;;18.02;11.77;;;12.90;55.30;;;;;;5042439;28;20068;-68
2022/04/17 07:20:08;;;;;;;14.82;10.52;;;13.30;54.20;;;;;;5039152;28;20033;-68
2022/04/17 07:22:38;;;;;;;12.88;9.50;;;13.40;55.30;;;;;;5033246;28;20557;-68
2022/04/17 07:25:06;;;;;;;13.05;10.25;;;13.70;53.20;;;;;;5033573;28;20657;-68
2022/04/17 07:27:39;;;;;;;13.07;9.40;;;13.90;52.80;;;;;;5044733;28;20457;-68
2022/04/17 07:30:10;;;;;;;11.63;9.18;;;14.00;51.40;;;;;;5043581;28;20045;-68
2022/04/17 07:32:35;;;;;;;13.65;9.07;;;14.00;50.30;;;;;;5042400;28;20037;-69
2022/04/17 07:35:01;;;;;;;12.95;9.40;;;14.30;51.30;;;;;;5040582;28;20049;-68
2022/04/17 07:37:27;;;;;;;14.70;9.23;;;14.60;51.50;;;;;;5033630;28;20033;-69
2022/04/17 07:39:53;;;;;;;13.50;9.43;;;14.60;50.90;;;;;;5034155;28;20037;-68
2022/04/17 07:42:20;;;;;;;12.43;8.77;;;14.60;50.20;;;;;;5038997;28;20045;-68
2022/04/17 07:44:49;;;;;;;11.20;9.02;;;14.70;49.80;;;;;;5050657;28;20048;-68
2022/04/17 07:47:16;;;;;;;12.10;9.68;;;14.80;49.90;;;;;;5053430;28;20047;-70
2022/04/17 07:49:42;;;;;;;12.50;9.75;;;14.90;49.40;;;;;;5053156;28;20041;-69
2022/04/17 07:52:08;;;;;;;12.75;9.23;;;15.10;49.40;;;;;;5039194;28;20656;-70
2022/04/17 07:54:33;;;;;;;13.57;9.77;;;15.50;48.80;;;;;;5036763;28;20060;-69
2022/04/17 07:57:00;;;;;;;16.65;10.30;;;15.40;48.70;;;;;;5042532;28;20064;-68
2022/04/17 07:59:25;;;;;;;13.32;10.38;;;15.40;48.80;;;;;;5034205;28;20506;-68
2022/04/17 08:02:01;;;;;;;12.05;9.52;;;15.60;48.30;;;;;;5042518;28;20038;-68
2022/04/17 08:04:27;;;;;;;14.68;9.98;;;16.00;48.60;;;;;;5038372;28;20043;-68
2022/04/17 08:06:53;;;;;;;12.45;9.00;;;16.00;48.10;;;;;;5033069;28;20518;-68
2022/04/17 08:09:19;;;;;;;11.18;8.98;;;15.90;47.70;;;;;;5041673;28;20044;-68
2022/04/17 08:11:51;;;;;;;10.40;8.35;;;15.90;47.40;;;;;;5052413;28;20122;-68
2022/04/17 08:14:20;;;;;;;10.52;8.45;;;16.00;47.20;;;;;;5052734;28;20043;-68
2022/04/17 08:16:46;;;;;;;10.68;7.68;;;16.00;47.50;;;;;;5052041;28;20041;-68
2022/04/17 08:19:12;;;;;;;10.85;8.00;;;16.00;46.70;;;;;;5052558;28;20036;-68
2022/04/17 08:21:37;;;;;;;12.88;7.75;;;16.20;45.90;;;;;;5052187;28;20041;-68
2022/04/17 08:24:03;;;;;;;12.13;8.05;;;16.50;45.60;;;;;;5052263;28;20041;-69
2022/04/17 08:26:29;;;;;;;12.65;7.53;;;16.50;45.40;;;;;;5052500;28;20044;-68
2022/04/17 08:28:54;;;;;;;11.30;7.40;;;16.70;45.30;;;;;;5048785;28;20041;-69
2022/04/17 08:31:20;;;;;;;10.40;7.65;;;16.60;44.70;;;;;;5032478;28;20080;-68
2022/04/17 08:33:46;;;;;;;11.98;8.90;;;16.40;44.70;;;;;;5031621;28;20168;-68
2022/04/17 08:36:12;;;;;;;7.88;6.75;;;16.30;44.40;;;;;;5032091;28;20052;-68
2022/04/17 08:38:38;;;;;;;12.23;7.22;;;16.50;44.40;;;;;;5032468;28;20045;-67
2022/04/17 08:41:05;;;;;;;9.55;6.03;;;16.40;44.30;;;;;;5037561;28;20036;-68
2022/04/17 08:43:31;;;;;;;9.05;7.03;;;16.70;44.10;;;;;;5040767;28;20041;-68
2022/04/17 08:45:57;;;;;;;8.15;6.47;;;16.90;44.10;;;;;;5032235;28;20041;-68
2022/04/17 08:48:22;;;;;;;8.90;7.30;;;17.20;44.00;;;;;;5032385;28;20052;-68
2022/04/17 08:50:52;;;;;;;9.00;7.05;;;16.60;42.20;;;;;;5031754;28;20042;-68
2022/04/17 08:53:18;;;;;;;10.02;6.80;;;17.00;42.10;;;;;;5032107;28;20604;-68
2022/04/17 08:55:44;;;;;;;7.63;5.68;;;17.10;42.00;;;;;;5032037;28;20041;-68
2022/04/17 08:58:11;;;;;;;8.68;6.47;;;17.10;40.90;;;;;;5030742;28;20045;-68
2022/04/17 09:00:36;;;;;;;7.93;6.65;;;17.10;41.50;;;;;;5031688;28;20116;-68
2022/04/17 09:03:02;;;;;;;8.32;6.35;;;17.00;41.30;;;;;;5031298;28;20030;-68
2022/04/17 09:05:32;;;;;;;8.90;5.63;;;16.80;41.30;;;;;;5031838;28;20095;-69
2022/04/17 09:08:21;;;;;;;8.70;5.78;;;16.80;41.50;;;;;;5032115;28;20043;-69
2022/04/17 09:10:59;;;;;;;9.55;6.15;;;17.10;40.60;;;;;;5031266;28;20112;-68
2022/04/17 09:13:33;;;;;;;8.85;6.22;;;17.10;41.40;;;;;;5031746;28;20398;-69
2022/04/17 09:16:02;;;;;;;8.27;5.63;;;17.30;40.80;;;;;;5034279;28;20537;-69
2022/04/17 09:18:29;;;;;;;8.30;6.40;;;17.20;40.10;;;;;;5042345;28;20041;-69
2022/04/17 09:20:56;;;;;;;9.00;6.05;;;16.90;41.10;;;;;;5051677;28;20132;-68
2022/04/17 09:23:33;;;;;;;7.18;5.45;;;17.00;41.50;;;;;;5051694;28;20048;-68
2022/04/17 09:25:59;;;;;;;8.30;5.93;;;17.10;40.90;;;;;;5051700;28;20072;-68
2022/04/17 09:28:31;;;;;;;8.65;6.32;;;17.00;40.80;;;;;;5051110;28;20403;-68
2022/04/17 09:30:59;;;;;;;5.70;5.10;;;17.10;41.30;;;;;;5040972;28;20441;-68
2022/04/17 09:33:37;;;;;;;7.95;6.35;;;16.80;40.90;;;;;;5040009;28;20047;-70
2022/04/17 09:36:04;;;;;;;7.72;6.20;;;16.60;40.00;;;;;;5039488;28;20072;-69
2022/04/17 09:38:32;;;;;;;8.43;6.20;;;16.60;41.20;;;;;;5042120;28;20037;-69
2022/04/17 09:41:17;;;;;;;8.25;6.15;;;16.70;41.20;;;;;;5032724;28;20503;-68
2022/04/17 09:43:43;;;;;;;7.72;5.10;;;16.80;40.50;;;;;;5036504;28;20729;-70
2022/04/17 09:46:10;;;;;;;7.70;5.50;;;16.70;40.20;;;;;;5032970;28;20469;-69
2022/04/17 09:48:38;;;;;;;8.43;5.55;;;16.70;40.30;;;;;;5033902;28;20045;-69
2022/04/17 09:51:19;;;;;;;6.85;5.55;;;16.80;39.90;;;;;;5035014;28;20053;-68
2022/04/17 09:53:56;;;;;;;6.80;5.80;;;17.00;40.80;;;;;;5035330;28;20084;-68
2022/04/17 09:56:37;;;;;;;7.35;5.68;;;17.10;40.60;;;;;;5035383;28;20495;-69
2022/04/17 09:59:20;;;;;;;8.27;5.47;;;17.00;40.00;;;;;;5050000;28;20116;-67
2022/04/17 10:01:54;;;;;;;8.07;5.47;;;17.00;39.90;;;;;;5053451;28;20032;-68
2022/04/17 10:04:21;;;;;;;6.90;5.15;;;17.10;40.40;;;;;;5055088;28;20533;-68
2022/04/17 10:06:51;;;;;;;9.38;4.78;;;17.10;40.90;;;;;;5054932;28;20510;-68
2022/04/17 10:09:18;;;;;;;7.45;5.70;;;16.90;39.70;;;;;;5055121;28;20041;-68
2022/04/17 10:11:44;;;;;;;8.23;5.82;;;16.60;39.20;;;;;;5050060;28;20422;-68
2022/04/17 10:14:10;;;;;;;7.82;5.90;;;16.30;40.00;;;;;;5034848;28;20033;-68
2022/04/17 10:16:41;;;;;;;5.63;4.45;;;16.30;41.30;;;;;;5034912;28;20044;-68
2022/04/17 10:19:11;;;;;;;8.25;5.30;;;16.40;39.10;;;;;;5038248;28;20413;-68
2022/04/17 10:21:39;;;;;;;8.13;5.20;;;16.30;38.50;;;;;;5044581;28;20073;-68
2022/04/17 10:24:07;;;;;;;8.93;4.93;;;16.40;38.80;;;;;;5033596;28;20080;-68
2022/04/17 10:26:38;;;;;;;7.80;4.75;;;16.10;38.10;;;;;;5034737;28;20092;-68
2022/04/17 10:29:10;;;;;;;9.27;5.95;;;16.10;38.90;;;;;;5035903;28;20033;-68
2022/04/17 10:31:52;;;;;;;6.00;4.15;;;16.10;39.10;;;;;;5046467;28;20073;-68
2022/04/17 10:34:33;;;;;;;5.70;4.28;;;16.10;37.50;;;;;;5034469;28;20473;-68
2022/04/17 10:37:16;;;;;;;6.20;4.25;;;16.10;36.90;;;;;;5034563;28;20049;-69
2022/04/17 10:39:47;;;;;;;6.07;4.85;;;16.00;35.80;;;;;;5033645;28;20045;-68
2022/04/17 10:42:13;;;;;;;6.00;4.03;;;16.10;37.10;;;;;;5034623;28;20037;-68
2022/04/17 10:44:41;;;;;;;6.00;3.63;;;16.10;36.10;;;;;;5034668;28;20038;-69
2022/04/17 10:47:24;;;;;;;5.53;3.40;;;16.00;34.10;;;;;;5034521;28;20052;-69
2022/04/17 10:49:54;;;;;;;7.18;3.97;;;16.00;34.30;;;;;;5034281;28;20466;-68
2022/04/17 10:52:31;;;;;;;4.78;3.72;;;16.00;34.80;;;;;;5034581;28;20042;-68
2022/04/17 10:55:11;;;;;;;5.88;3.30;;;16.00;34.70;;;;;;5048390;28;20037;-68
2022/04/17 10:57:45;;;;;;;4.07;2.90;;;16.20;34.70;;;;;;5033386;28;20112;-68
2022/04/17 11:00:36;;;;;;;5.60;3.28;;;16.20;33.10;;;;;;5034029;28;20112;-68
2022/04/17 11:03:10;;;;;;;4.68;3.50;;;16.00;32.70;;;;;;5032915;28;20049;-68
2022/04/17 11:08:25;;;;;;;5.78;4.13;;;16.20;35.40;;;;;;5033859;28;20050;-68
2022/04/17 11:10:54;;;;;;;6.28;3.83;;;16.20;35.00;;;;;;5033902;28;20041;-68
2022/04/17 11:13:21;;;;;;;6.55;4.05;;;16.20;34.40;;;;;;5047616;28;20555;-68
2022/04/17 11:15:56;;;;;;;5.40;4.13;;;16.10;34.70;;;;;;5034180;28;20040;-68
2022/04/17 11:18:28;;;;;;;5.95;4.03;;;16.10;34.30;;;;;;5032803;28;20407;-68
2022/04/17 11:20:55;;;;;;;7.50;4.28;;;16.30;35.30;;;;;;5033359;28;20041;-68
2022/04/17 11:23:46;;;;;;;6.57;4.03;;;16.30;35.60;;;;;;5033911;28;20052;-69
2022/04/17 11:26:11;;;;;;;6.13;4.20;;;16.20;34.30;;;;;;5042510;28;20033;-68
2022/04/17 11:28:37;;;;;;;5.07;3.80;;;16.30;34.90;;;;;;5035465;28;20051;-69
2022/04/17 11:31:02;;;;;;;5.97;4.20;;;16.00;33.60;;;;;;5049582;28;20056;-69
2022/04/17 11:33:28;;;;;;;6.00;4.13;;;16.00;34.40;;;;;;5045809;28;20418;-68
2022/04/17 11:35:54;;;;;;;6.20;4.45;;;16.20;35.50;;;;;;5032216;28;20041;-68
2022/04/17 11:38:19;;;;;;;5.07;4.00;;;16.30;35.40;;;;;;5033453;28;20038;-69
2022/04/17 11:40:48;;;;;;;6.32;4.22;;;16.30;34.70;;;;;;5033585;28;20065;-68
2022/04/17 11:43:15;;;;;;;6.28;4.25;;;16.30;35.00;;;;;;5032719;28;20041;-69
2022/04/17 11:45:42;;;;;;;6.05;4.63;;;16.40;35.30;;;;;;5038386;28;20044;-68
2022/04/17 11:48:13;;;;;;;6.07;4.68;;;16.50;35.90;;;;;;5036260;28;20049;-69
2022/04/17 11:50:40;;;;;;;6.90;4.68;;;16.60;35.60;;;;;;5033388;28;20038;-68
2022/04/17 11:53:14;;;;;;;6.60;4.63;;;16.60;35.60;;;;;;5034656;28;20116;-69
2022/04/17 11:55:41;;;;;;;6.22;4.85;;;16.70;35.60;;;;;;5050062;28;20102;-68
2022/04/17 11:58:13;;;;;;;8.60;4.70;;;16.60;35.80;;;;;;5053134;28;20037;-69
2022/04/17 12:00:39;;;;;;;6.90;4.75;;;16.70;36.30;;;;;;5052677;28;20077;-69
2022/04/17 12:03:06;;;;;;;9.88;5.78;;;16.70;37.20;;;;;;5053182;28;20037;-69
2022/04/17 12:05:34;;;;;;;7.40;5.28;;;16.70;35.90;;;;;;5053117;28;20041;-69
2022/04/17 12:08:09;;;;;;;6.82;4.60;;;16.40;34.70;;;;;;5052917;28;20447;-69
2022/04/17 12:10:38;;;;;;;8.07;5.20;;;16.50;35.20;;;;;;5052492;28;20487;-69
2022/04/17 12:13:21;;;;;;;7.72;4.70;;;16.50;35.80;;;;;;5052560;28;20399;-69
2022/04/17 12:15:58;;;;;;;6.28;4.68;;;16.40;35.50;;;;;;5052929;28;20414;-69
2022/04/17 12:18:24;;;;;;;6.30;5.05;;;16.50;35.60;;;;;;5052796;28;20124;-69
2022/04/17 12:21:02;;;;;;;8.30;5.20;;;16.40;35.90;;;;;;5052339;28;20152;-69
2022/04/17 12:23:29;;;;;;;6.63;4.82;;;16.50;34.80;;;;;;5052442;28;20033;-69
2022/04/17 12:25:56;;;;;;;7.40;5.00;;;16.40;34.00;;;;;;5052746;28;20041;-68
2022/04/17 12:28:22;;;;;;;6.80;4.88;;;16.30;33.10;;;;;;5051545;28;20049;-69
2022/04/17 12:30:48;;;;;;;6.72;4.38;;;16.40;33.70;;;;;;5051168;28;20041;-69
2022/04/17 12:33:25;;;;;;;8.65;4.78;;;16.50;33.40;;;;;;5051143;28;20051;-69
2022/04/17 12:36:06;;;;;;;7.22;4.63;;;16.50;32.70;;;;;;5051512;28;20415;-69
2022/04/17 12:38:33;;;;;;;6.38;4.47;;;16.50;33.60;;;;;;5048792;28;20052;-68
2022/04/17 12:40:58;;;;;;;7.68;4.95;;;16.40;33.40;;;;;;5042895;28;20048;-68
2022/04/17 12:43:29;;;;;;;7.32;5.68;;;16.50;33.60;;;;;;5041696;28;20045;-68
2022/04/17 12:45:56;;;;;;;6.20;4.50;;;16.80;34.20;;;;;;5046479;28;20508;-69
2022/04/17 12:48:33;;;;;;;8.40;5.75;;;16.70;34.30;;;;;;5051033;28;20045;-69
2022/04/17 12:51:02;;;;;;;6.75;4.68;;;16.70;33.70;;;;;;5051869;28;20080;-68
2022/04/17 12:53:34;;;;;;;8.82;4.53;;;16.80;34.90;;;;;;5051944;28;20386;-68
2022/04/17 12:55:59;;;;;;;6.15;4.57;;;16.90;34.60;;;;;;5052030;28;20108;-69
2022/04/17 12:58:25;;;;;;;6.78;5.07;;;16.80;33.40;;;;;;5050686;28;20466;-69
2022/04/17 13:01:00;;;;;;;7.70;4.72;;;16.90;33.50;;;;;;5051936;28;20086;-68